Dorothy Gale — WDH5089 — position and weather

sailwx.info

Track history (hours):
 
Tides and Currents Weather Stations Pressure Air Temp Water Temp Dewpoint Dewpoint Depression Visibility Wind Speed Wind Dir Waves Ship Positions

Dorothy Gale

Owner: Lioio, Richard J, Redondo Beach, CA. More information available from US FCC via Universal Licensing System and Coast Guard Vessel Documentation Center.

Last reported at 2017-Aug-27 20:20 UTC. Time now 2017-Sep-24 03:35 UTC.
Position N 33°55' W 118°30'.
Warning: this ship's position is 27 days out of date.

Length 14 m.

Type: Sailing vessel. MMSI: 367624420.

Date/timePositionNaut miles runAvg speedWind from/ knotsBaromVisibWave heightAir tempDewpointWater temp
2017-Aug-27 20:20N 33°55' W 118°30'3 6.3
2017-Aug-27 19:54N 33°58' W 118°29'1 2.2
2017-Aug-27 19:29N 33°58' W 118°28'  
2017-Aug-24 20:14N 34°00' W 118°53'2 6.6
2017-Aug-24 19:59N 34°01' W 118°55'4 6.9
2017-Aug-24 19:28N 34°02' W 118°59'3 7.2
2017-Aug-24 19:00N 34°03' W 119°03'4 7.5
2017-Aug-24 18:30N 34°04' W 119°07'4 7.5
2017-Aug-24 18:00N 34°06' W 119°11'4 7.3
2017-Aug-24 17:28N 34°08' W 119°15'4 7.0
2017-Aug-24 16:52N 34°10' W 119°19'3 7.1
2017-Aug-24 16:30N 34°12' W 119°22'4 7.1
2017-Aug-24 15:57N 34°14' W 119°26'5 7.2
2017-Aug-24 15:14N 34°17' W 119°30'3 7.3
2017-Aug-24 14:53N 34°19' W 119°33'4 7.3
2017-Aug-24 14:23N 34°21' W 119°36'3 7.4
2017-Aug-24 14:00N 34°23' W 119°39'2 0.4
2017-Aug-24 08:12N 34°24' W 119°42'0 0.0
2017-Aug-24 06:18N 34°24' W 119°42'0 0.0
2017-Aug-24 05:54N 34°24' W 119°42'0 0.0
2017-Aug-24 02:42N 34°24' W 119°42'0 0.0
2017-Aug-22 19:05N 34°25' W 119°41'0 5.5
2017-Aug-22 19:00N 34°24' W 119°41'4 6.7
2017-Aug-22 18:26N 34°22' W 119°37'3 6.7
2017-Aug-22 17:55N 34°20' W 119°33'3 6.2
2017-Aug-22 17:22N 34°18' W 119°30'2 6.3
2017-Aug-22 17:00N 34°17' W 119°28'3 6.8
2017-Aug-22 16:30N 34°15' W 119°25'3 6.8
2017-Aug-22 16:00N 34°13' W 119°21'3 6.3
2017-Aug-22 15:30N 34°11' W 119°18'4 6.5
2017-Aug-22 14:54N 34°09' W 119°14'2 0.0
2017-Aug-20 20:49N 34°10' W 119°14'1 3.7
2017-Aug-20 20:30N 34°09' W 119°14'4 7.3
2017-Aug-20 20:00N 34°06' W 119°12'4 7.1
2017-Aug-20 19:30N 34°04' W 119°08'4 7.3
2017-Aug-20 18:59N 34°03' W 119°04'4 7.4
2017-Aug-20 18:30N 34°02' W 118°60'4 7.2
2017-Aug-20 18:00N 34°01' W 118°55'7 0.4
2017-Aug-20 00:30N 34°01' W 118°47'3 0.7
2017-Aug-19 21:06N 34°01' W 118°44'1 5.9
2017-Aug-19 20:58N 34°01' W 118°43'  
Track history (hours):
 
Tides and Currents Weather Stations Pressure Air Temp Water Temp Dewpoint Dewpoint Depression Visibility Wind Speed Wind Dir Waves Ship Positions

Dorothy Gale

Owner: Lioio, Richard J, Redondo Beach, CA. More information available from US FCC via Universal Licensing System and Coast Guard Vessel Documentation Center.

Last reported at 2017-Aug-27 20:20 UTC. Time now 2017-Sep-24 03:35 UTC.
Position N 33°55' W 118°30'.
Warning: this ship's position is 27 days out of date.

Length 14 m.

Type: Sailing vessel. MMSI: 367624420.

Date/timePositionNaut miles runAvg speedWind from/ knotsBaromVisibWave heightAir tempDewpointWater temp
2017-Aug-27 20:20N 33°55' W 118°30'3 6.3
2017-Aug-27 19:54N 33°58' W 118°29'1 2.2
2017-Aug-27 19:29N 33°58' W 118°28'  
2017-Aug-24 20:14N 34°00' W 118°53'2 6.6
2017-Aug-24 19:59N 34°01' W 118°55'4 6.9
2017-Aug-24 19:28N 34°02' W 118°59'3 7.2
2017-Aug-24 19:00N 34°03' W 119°03'4 7.5
2017-Aug-24 18:30N 34°04' W 119°07'4 7.5
2017-Aug-24 18:00N 34°06' W 119°11'4 7.3
2017-Aug-24 17:28N 34°08' W 119°15'4 7.0
2017-Aug-24 16:52N 34°10' W 119°19'3 7.1
2017-Aug-24 16:30N 34°12' W 119°22'4 7.1
2017-Aug-24 15:57N 34°14' W 119°26'5 7.2
2017-Aug-24 15:14N 34°17' W 119°30'3 7.3
2017-Aug-24 14:53N 34°19' W 119°33'4 7.3
2017-Aug-24 14:23N 34°21' W 119°36'3 7.4
2017-Aug-24 14:00N 34°23' W 119°39'2 0.4
2017-Aug-24 08:12N 34°24' W 119°42'0 0.0
2017-Aug-24 06:18N 34°24' W 119°42'0 0.0
2017-Aug-24 05:54N 34°24' W 119°42'0 0.0
2017-Aug-24 02:42N 34°24' W 119°42'0 0.0
2017-Aug-22 19:05N 34°25' W 119°41'0 5.5
2017-Aug-22 19:00N 34°24' W 119°41'4 6.7
2017-Aug-22 18:26N 34°22' W 119°37'3 6.7
2017-Aug-22 17:55N 34°20' W 119°33'3 6.2
2017-Aug-22 17:22N 34°18' W 119°30'2 6.3
2017-Aug-22 17:00N 34°17' W 119°28'3 6.8
2017-Aug-22 16:30N 34°15' W 119°25'3 6.8
2017-Aug-22 16:00N 34°13' W 119°21'3 6.3
2017-Aug-22 15:30N 34°11' W 119°18'4 6.5
2017-Aug-22 14:54N 34°09' W 119°14'2 0.0
2017-Aug-20 20:49N 34°10' W 119°14'1 3.7
2017-Aug-20 20:30N 34°09' W 119°14'4 7.3
2017-Aug-20 20:00N 34°06' W 119°12'4 7.1
2017-Aug-20 19:30N 34°04' W 119°08'4 7.3
2017-Aug-20 18:59N 34°03' W 119°04'4 7.4
2017-Aug-20 18:30N 34°02' W 118°60'4 7.2
2017-Aug-20 18:00N 34°01' W 118°55'7 0.4
2017-Aug-20 00:30N 34°01' W 118°47'3 0.7
2017-Aug-19 21:06N 34°01' W 118°44'1 5.9
2017-Aug-19 20:58N 34°01' W 118°43'  

Dump ship's entire track history